Time;durP1;ratioP1;P1;durP2;ratioP2;P2;SDS_P1;SDS_P2;PMS_P1;PMS_P2;Temp;Humidity;BMP_temperature;BMP_pressure;BME280_temperature;BME280_humidity;BME280_pressure;Samples;Min_cycle;Max_cycle;Signal;HPM_P1;HPM_P2
2022/05/20 00:01:05;;;;;;;11.93;2.17;;;13.50;93.50;;;;;;5006936;28;20053;-59
2022/05/20 00:03:32;;;;;;;10.50;2.28;;;13.60;93.70;;;;;;5009764;28;20036;-58
2022/05/20 00:05:59;;;;;;;8.27;2.03;;;13.50;93.80;;;;;;5007733;28;20105;-58
2022/05/20 00:08:26;;;;;;;12.27;2.10;;;13.40;94.20;;;;;;5009747;28;20034;-58
2022/05/20 00:10:53;;;;;;;11.38;2.65;;;13.40;94.30;;;;;;5008634;28;20433;-58
2022/05/20 00:13:20;;;;;;;16.33;2.92;;;13.40;94.20;;;;;;5005842;28;20042;-58
2022/05/20 00:15:46;;;;;;;10.95;1.58;;;13.40;94.20;;;;;;5009240;28;20032;-58
2022/05/20 00:18:12;;;;;;;20.35;2.80;;;13.40;94.30;;;;;;5007762;28;20440;-59
2022/05/20 00:20:38;;;;;;;13.48;2.60;;;13.40;94.20;;;;;;5008620;28;20037;-59
2022/05/20 00:23:04;;;;;;;8.68;1.90;;;13.40;94.10;;;;;;5008271;28;20517;-59
2022/05/20 00:25:45;;;;;;;12.50;2.78;;;13.50;93.90;;;;;;5012920;28;20113;-59
2022/05/20 00:28:22;;;;;;;9.57;2.33;;;13.50;93.60;;;;;;5010635;28;20026;-58
2022/05/20 00:30:56;;;;;;;13.05;2.78;;;13.40;93.80;;;;;;5011134;28;20482;-58
2022/05/20 00:33:23;;;;;;;9.57;3.03;;;13.40;94.20;;;;;;5009450;28;20045;-58
2022/05/20 00:35:49;;;;;;;12.63;2.70;;;13.30;94.50;;;;;;5012735;28;20482;-57
2022/05/20 00:38:15;;;;;;;14.55;2.10;;;13.30;94.50;;;;;;5010980;28;20064;-57
2022/05/20 00:40:42;;;;;;;11.52;1.90;;;13.20;94.80;;;;;;5011472;28;20030;-58
2022/05/20 00:43:13;;;;;;;11.50;1.75;;;13.30;94.90;;;;;;5001311;28;20487;-59
2022/05/20 00:45:40;;;;;;;10.63;2.28;;;13.30;94.90;;;;;;5006614;28;20504;-58
2022/05/20 00:48:06;;;;;;;8.13;2.20;;;13.30;94.70;;;;;;5010073;28;20037;-58
2022/05/20 00:50:33;;;;;;;13.15;2.47;;;13.40;94.40;;;;;;5010104;28;20987;-58
2022/05/20 00:52:59;;;;;;;19.10;4.32;;;13.40;94.30;;;;;;5001383;28;20083;-58
2022/05/20 00:55:26;;;;;;;16.85;3.20;;;13.30;94.50;;;;;;5000316;28;20037;-59
2022/05/20 00:58:09;;;;;;;13.82;3.10;;;13.30;94.80;;;;;;5011454;28;20049;-58
2022/05/20 01:00:43;;;;;;;12.15;2.45;;;13.30;94.90;;;;;;5011185;28;20037;-58
2022/05/20 01:03:11;;;;;;;14.45;2.53;;;13.20;95.10;;;;;;5010496;28;20026;-58
2022/05/20 01:05:41;;;;;;;18.25;3.45;;;13.10;95.40;;;;;;5012350;28;20034;-58
2022/05/20 01:08:08;;;;;;;17.70;3.00;;;13.10;95.60;;;;;;5007912;28;20120;-59
2022/05/20 01:10:34;;;;;;;14.65;2.97;;;12.80;96.00;;;;;;5011069;28;20033;-59
2022/05/20 01:13:00;;;;;;;8.65;2.17;;;12.90;96.20;;;;;;5009822;28;20038;-58
2022/05/20 01:15:28;;;;;;;10.00;1.90;;;12.80;96.00;;;;;;5011963;28;20362;-58
2022/05/20 01:17:55;;;;;;;7.95;2.08;;;12.80;95.80;;;;;;5011934;28;20030;-59
2022/05/20 01:20:27;;;;;;;7.15;1.67;;;12.70;95.90;;;;;;5011613;28;20521;-59
2022/05/20 01:22:56;;;;;;;11.93;2.03;;;12.60;95.80;;;;;;5002382;28;20053;-59
2022/05/20 01:25:23;;;;;;;13.13;1.98;;;12.50;95.90;;;;;;5003444;28;20030;-58
2022/05/20 01:27:49;;;;;;;10.48;1.90;;;12.40;96.30;;;;;;5009834;28;20045;-59
2022/05/20 01:30:21;;;;;;;13.52;2.58;;;12.40;96.40;;;;;;5009880;28;20492;-57
2022/05/20 01:32:47;;;;;;;8.52;1.80;;;12.30;96.70;;;;;;5003770;28;20030;-58
2022/05/20 01:35:21;;;;;;;11.45;2.38;;;12.30;96.80;;;;;;5006682;28;20034;-58
2022/05/20 01:37:46;;;;;;;11.30;2.22;;;12.30;97.00;;;;;;5007330;28;20035;-58
2022/05/20 01:40:12;;;;;;;12.63;2.30;;;12.30;96.80;;;;;;5002926;28;20040;-58
2022/05/20 01:42:47;;;;;;;10.90;2.85;;;12.30;97.10;;;;;;5009965;28;20022;-57
2022/05/20 01:45:42;;;;;;;8.55;2.15;;;12.20;96.60;;;;;;5000852;28;20037;-59
2022/05/20 01:48:19;;;;;;;11.70;1.75;;;12.20;96.80;;;;;;5008144;28;20121;-58
2022/05/20 01:50:52;;;;;;;7.68;2.13;;;12.20;96.80;;;;;;4996720;28;20045;-58
2022/05/20 01:53:44;;;;;;;11.57;2.10;;;12.20;96.80;;;;;;4992842;28;20058;-58
2022/05/20 01:56:15;;;;;;;10.40;2.25;;;12.10;96.80;;;;;;4999792;28;20437;-58
2022/05/20 01:59:05;;;;;;;10.10;1.85;;;12.00;97.00;;;;;;4997093;28;20018;-58
2022/05/20 02:01:38;;;;;;;14.23;2.75;;;12.00;97.40;;;;;;4996893;28;20034;-58
2022/05/20 02:04:10;;;;;;;10.60;1.80;;;11.90;98.40;;;;;;4999095;28;20045;-58
2022/05/20 02:06:41;;;;;;;13.73;2.28;;;11.90;97.90;;;;;;5005017;28;20042;-58
2022/05/20 02:09:19;;;;;;;7.45;1.85;;;12.00;97.70;;;;;;4998647;28;20121;-57
2022/05/20 02:11:50;;;;;;;10.90;2.42;;;12.10;97.50;;;;;;5005718;28;20489;-58
2022/05/20 02:15:01;;;;;;;10.43;1.80;;;12.10;97.60;;;;;;5008931;28;20072;-58
2022/05/20 02:17:33;;;;;;;16.77;2.58;;;12.10;97.20;;;;;;5002204;28;20038;-59
2022/05/20 02:20:17;;;;;;;9.35;2.25;;;12.20;97.20;;;;;;4992661;28;20037;-58
2022/05/20 02:22:49;;;;;;;10.02;2.47;;;12.20;97.20;;;;;;5003876;28;20034;-57
2022/05/20 02:25:20;;;;;;;15.60;2.97;;;12.20;97.00;;;;;;5000545;28;20038;-58
2022/05/20 02:27:50;;;;;;;18.70;4.20;;;12.20;98.60;;;;;;5009356;28;20038;-58
2022/05/20 02:30:19;;;;;;;18.25;3.80;;;12.20;99.10;;;;;;4998589;28;20046;-58
2022/05/20 02:32:54;;;;;;;14.32;3.35;;;12.30;99.20;;;;;;5009153;28;20052;-59
2022/05/20 02:35:19;;;;;;;10.05;3.25;;;12.30;98.90;;;;;;5009432;28;20092;-59
2022/05/20 02:37:46;;;;;;;12.45;2.92;;;12.30;98.20;;;;;;5009581;28;20034;-59
2022/05/20 02:40:16;;;;;;;11.07;2.90;;;12.40;98.10;;;;;;4999564;28;20038;-59
2022/05/20 02:42:41;;;;;;;9.88;2.63;;;12.40;98.00;;;;;;5010118;28;20028;-58
2022/05/20 02:45:08;;;;;;;14.05;2.45;;;12.40;98.10;;;;;;5008266;28;20034;-58
2022/05/20 02:47:34;;;;;;;9.27;1.85;;;12.30;98.30;;;;;;5008988;28;20446;-58
2022/05/20 02:50:03;;;;;;;12.00;2.42;;;12.30;98.50;;;;;;5008595;28;20074;-58
2022/05/20 02:52:29;;;;;;;10.18;1.55;;;12.40;98.30;;;;;;5008021;28;20030;-58
2022/05/20 02:54:54;;;;;;;9.10;1.52;;;12.30;98.20;;;;;;5009711;28;20037;-59
2022/05/20 02:57:20;;;;;;;9.20;1.60;;;12.40;97.80;;;;;;5007471;28;20080;-59
2022/05/20 03:05:17;;;;;;;11.65;1.65;;;12.50;96.70;;;;;;5003933;28;20084;-59
2022/05/20 03:07:43;;;;;;;7.40;2.42;;;12.50;96.60;;;;;;5009185;28;20429;-59
2022/05/20 03:10:09;;;;;;;8.60;1.90;;;12.40;97.10;;;;;;5008001;28;20022;-58
2022/05/20 03:12:35;;;;;;;12.77;2.17;;;12.30;98.10;;;;;;5008906;28;20032;-59
2022/05/20 03:15:12;;;;;;;12.05;1.70;;;12.30;97.60;;;;;;5008335;28;20061;-58
2022/05/20 03:17:39;;;;;;;13.93;3.10;;;12.40;97.60;;;;;;5008897;28;20034;-59
2022/05/20 03:20:08;;;;;;;10.32;3.33;;;12.40;98.00;;;;;;5001974;28;20041;-58
2022/05/20 03:22:34;;;;;;;12.77;2.30;;;12.40;98.20;;;;;;5009654;28;20482;-59
2022/05/20 03:25:00;;;;;;;9.23;2.70;;;12.40;98.30;;;;;;5007995;28;20030;-59
2022/05/20 03:27:27;;;;;;;9.98;2.45;;;12.40;98.30;;;;;;5009104;28;20030;-59
2022/05/20 03:29:53;;;;;;;13.60;2.28;;;12.40;98.20;;;;;;5009070;28;20042;-59
2022/05/20 03:32:19;;;;;;;9.93;1.60;;;12.40;97.60;;;;;;5008574;28;20226;-59
2022/05/20 03:34:45;;;;;;;7.28;1.40;;;12.40;97.40;;;;;;5009490;28;20049;-59
2022/05/20 03:37:10;;;;;;;6.05;1.30;;;12.30;97.50;;;;;;5007296;28;20022;-59
2022/05/20 03:39:36;;;;;;;11.57;1.83;;;12.30;97.60;;;;;;5009853;28;20438;-58
2022/05/20 03:42:05;;;;;;;8.57;1.88;;;12.30;97.70;;;;;;5006461;28;20118;-58
2022/05/20 03:44:32;;;;;;;8.73;2.92;;;12.30;98.00;;;;;;5009387;28;20026;-58
2022/05/20 03:46:58;;;;;;;6.38;2.58;;;12.30;98.10;;;;;;5006603;28;20513;-59
2022/05/20 03:49:26;;;;;;;19.73;3.70;;;12.30;98.30;;;;;;5009775;28;20022;-58
2022/05/20 03:51:54;;;;;;;13.90;2.15;;;12.30;98.50;;;;;;5008622;28;20116;-58
2022/05/20 03:54:21;;;;;;;8.98;2.35;;;12.40;97.90;;;;;;5007366;28;20056;-59
2022/05/20 03:56:47;;;;;;;13.85;2.25;;;12.40;97.50;;;;;;5000820;28;20030;-57
2022/05/20 03:59:14;;;;;;;9.90;1.75;;;12.40;97.30;;;;;;5009716;28;20034;-57
2022/05/20 04:01:57;;;;;;;9.30;1.60;;;12.40;97.40;;;;;;5013177;28;20040;-57
2022/05/20 04:04:29;;;;;;;9.02;1.98;;;12.50;97.10;;;;;;5009253;28;20454;-57
2022/05/20 04:06:55;;;;;;;13.18;2.97;;;12.50;97.10;;;;;;5011999;28;20334;-58
2022/05/20 04:09:20;;;;;;;8.65;2.55;;;12.50;97.80;;;;;;5011576;28;20026;-58
2022/05/20 04:11:49;;;;;;;8.98;2.80;;;12.50;98.00;;;;;;5012219;28;20112;-58
2022/05/20 04:14:15;;;;;;;10.40;1.80;;;12.50;98.10;;;;;;5010105;28;20103;-58
2022/05/20 04:16:40;;;;;;;8.35;2.00;;;12.50;97.60;;;;;;5012815;28;20433;-59
2022/05/20 04:19:06;;;;;;;11.27;3.50;;;12.50;97.50;;;;;;5010920;28;20485;-58
2022/05/20 04:21:32;;;;;;;13.98;2.60;;;12.60;97.50;;;;;;5012559;28;20065;-58
2022/05/20 04:23:57;;;;;;;9.63;3.70;;;12.60;97.50;;;;;;5010313;28;20459;-58
2022/05/20 04:26:23;;;;;;;8.52;1.75;;;12.60;97.50;;;;;;5012705;28;20037;-58
2022/05/20 04:28:49;;;;;;;6.93;1.17;;;12.50;97.30;;;;;;5009883;28;20037;-58
2022/05/20 04:31:15;;;;;;;7.35;1.85;;;12.50;97.50;;;;;;5011077;28;20084;-58
2022/05/20 04:33:40;;;;;;;7.60;2.42;;;12.50;97.50;;;;;;5011707;28;20034;-57
2022/05/20 04:36:07;;;;;;;10.85;2.20;;;12.50;97.90;;;;;;5011263;28;20107;-58
2022/05/20 04:38:33;;;;;;;5.07;2.03;;;12.60;97.80;;;;;;5012501;28;20037;-58
2022/05/20 04:47:09;;;;;;;9.07;2.47;;;12.90;97.40;;;;;;5008965;28;20093;-58
2022/05/20 04:49:16;;;;;;;13.02;2.70;;;12.90;97.50;;;;;;5005185;28;20068;-57
2022/05/20 04:51:41;;;;;;;10.93;2.05;;;13.00;97.50;;;;;;5012240;28;20053;-58
2022/05/20 04:56:53;;;;;;;9.23;1.95;;;12.90;97.10;;;;;;5012438;28;20368;-58
2022/05/20 04:59:20;;;;;;;11.88;3.15;;;13.00;96.80;;;;;;5008462;28;20489;-59
2022/05/20 05:01:46;;;;;;;10.55;2.90;;;13.00;96.90;;;;;;5007318;28;20100;-58
2022/05/20 05:04:12;;;;;;;14.43;4.68;;;13.10;96.70;;;;;;5009065;28;20125;-58
2022/05/20 05:06:38;;;;;;;11.43;2.90;;;13.10;96.50;;;;;;5011866;28;20112;-59
2022/05/20 05:09:04;;;;;;;10.77;3.15;;;13.20;96.80;;;;;;5009807;28;20049;-58
2022/05/20 05:11:30;;;;;;;13.63;4.18;;;13.20;96.50;;;;;;5011808;28;20026;-58
2022/05/20 05:13:55;;;;;;;18.95;3.95;;;13.30;96.50;;;;;;5009200;28;20038;-58
2022/05/20 05:16:21;;;;;;;12.02;3.95;;;13.30;96.40;;;;;;5009315;28;20037;-58
2022/05/20 05:18:47;;;;;;;12.75;3.78;;;13.30;96.50;;;;;;5011986;28;20060;-58
2022/05/20 05:21:16;;;;;;;14.38;3.67;;;13.20;96.50;;;;;;5010120;28;20037;-58
2022/05/20 05:23:42;;;;;;;15.38;4.38;;;13.00;96.70;;;;;;5010903;28;20033;-58
2022/05/20 05:26:08;;;;;;;17.95;5.00;;;13.00;96.80;;;;;;5009896;28;20119;-58
2022/05/20 05:28:34;;;;;;;10.80;3.95;;;13.00;97.00;;;;;;5011189;28;20026;-59
2022/05/20 05:31:00;;;;;;;13.35;4.57;;;13.00;97.00;;;;;;5009574;28;20509;-57
2022/05/20 05:33:25;;;;;;;14.52;4.57;;;13.00;96.80;;;;;;5009868;28;20041;-58
2022/05/20 05:35:52;;;;;;;14.50;3.33;;;13.00;96.90;;;;;;5004015;28;20120;-59
2022/05/20 05:38:18;;;;;;;12.60;3.20;;;13.10;97.00;;;;;;5009218;28;20032;-58
2022/05/20 05:40:44;;;;;;;13.45;3.67;;;13.20;96.70;;;;;;5011667;28;20022;-57
2022/05/20 05:43:11;;;;;;;15.52;3.65;;;13.20;96.00;;;;;;5008226;28;20032;-58
2022/05/20 05:45:37;;;;;;;12.98;3.75;;;13.40;96.10;;;;;;5011009;28;20109;-59
2022/05/20 05:48:07;;;;;;;17.58;2.92;;;13.40;95.90;;;;;;5009692;28;20069;-58
2022/05/20 05:50:34;;;;;;;12.40;3.08;;;13.50;95.90;;;;;;5011170;28;20030;-58
2022/05/20 05:53:13;;;;;;;14.85;3.38;;;13.60;95.50;;;;;;5007894;28;20042;-58
2022/05/20 05:55:41;;;;;;;14.25;3.10;;;13.80;95.20;;;;;;5011003;28;20037;-59
2022/05/20 05:58:07;;;;;;;12.80;2.83;;;13.90;94.90;;;;;;5003691;28;20034;-59
2022/05/20 06:00:33;;;;;;;14.52;3.33;;;13.90;94.70;;;;;;5011016;28;20030;-58
2022/05/20 06:02:59;;;;;;;17.60;3.75;;;14.10;94.60;;;;;;5007867;28;20535;-59
2022/05/20 06:05:24;;;;;;;18.80;4.10;;;14.10;94.30;;;;;;5011040;28;20030;-59
2022/05/20 06:07:51;;;;;;;19.25;4.45;;;14.20;94.20;;;;;;5009561;28;20022;-59
2022/05/20 06:10:17;;;;;;;11.02;3.00;;;14.30;93.60;;;;;;5008832;28;20123;-59
2022/05/20 06:12:43;;;;;;;20.15;4.25;;;14.40;93.40;;;;;;5008640;28;20087;-59
2022/05/20 06:15:14;;;;;;;13.88;2.88;;;14.40;93.20;;;;;;5008362;28;20556;-58
2022/05/20 06:17:40;;;;;;;14.23;4.18;;;14.40;92.70;;;;;;5010725;28;20030;-59
2022/05/20 06:20:06;;;;;;;18.60;4.22;;;14.30;92.70;;;;;;5007889;28;20038;-59
2022/05/20 06:22:33;;;;;;;15.73;3.03;;;14.30;93.50;;;;;;5009241;28;20022;-58
2022/05/20 06:24:58;;;;;;;13.52;3.67;;;14.30;93.40;;;;;;5004375;28;20568;-58
2022/05/20 06:27:24;;;;;;;18.33;4.00;;;14.30;93.30;;;;;;5008619;28;20098;-59
2022/05/20 06:29:51;;;;;;;18.60;3.42;;;14.40;93.40;;;;;;5009256;28;20472;-59
2022/05/20 06:32:18;;;;;;;16.20;3.63;;;14.30;93.50;;;;;;5008547;28;20042;-58
2022/05/20 06:40:16;;;;;;;12.82;4.20;;;14.20;94.10;;;;;;4997625;28;20088;-58
2022/05/20 06:42:45;;;;;;;14.82;3.50;;;14.20;94.60;;;;;;5005207;28;20022;-58
2022/05/20 06:45:14;;;;;;;14.63;5.10;;;14.30;95.30;;;;;;5005262;28;20099;-59
2022/05/20 06:47:41;;;;;;;18.30;4.20;;;14.30;96.40;;;;;;5010066;28;20033;-59
2022/05/20 06:50:09;;;;;;;16.73;3.42;;;14.30;96.50;;;;;;5008251;28;20037;-58
2022/05/20 06:52:34;;;;;;;16.08;4.85;;;14.30;96.90;;;;;;5009082;28;20029;-58
2022/05/20 06:55:00;;;;;;;23.27;4.18;;;14.30;97.00;;;;;;5007922;28;20044;-58
2022/05/20 06:57:26;;;;;;;14.80;4.38;;;14.20;97.50;;;;;;5009669;28;20490;-60
2022/05/20 06:59:52;;;;;;;17.92;4.38;;;14.20;97.50;;;;;;5007669;28;20044;-59
2022/05/20 07:02:19;;;;;;;17.92;5.47;;;14.20;97.50;;;;;;5008415;28;20026;-58
2022/05/20 07:04:44;;;;;;;16.83;5.20;;;14.20;98.80;;;;;;5009237;28;21636;-59
2022/05/20 07:07:11;;;;;;;17.73;4.90;;;14.10;99.00;;;;;;5007393;28;20149;-59
2022/05/20 07:09:37;;;;;;;17.85;5.15;;;14.10;98.80;;;;;;5009541;28;20040;-59
2022/05/20 07:12:03;;;;;;;15.88;4.63;;;14.10;99.00;;;;;;5007301;28;20033;-58
2022/05/20 07:14:30;;;;;;;17.70;5.55;;;14.20;98.70;;;;;;5008085;28;20447;-59
2022/05/20 07:16:55;;;;;;;20.13;5.20;;;14.30;99.00;;;;;;5006057;28;20493;-59
2022/05/20 07:19:22;;;;;;;11.43;4.55;;;14.30;99.20;;;;;;5007902;28;20069;-58
2022/05/20 07:21:48;;;;;;;16.00;5.65;;;14.10;98.10;;;;;;5007913;28;20080;-58
2022/05/20 07:24:14;;;;;;;18.15;5.85;;;14.00;98.80;;;;;;5006953;28;20057;-60
2022/05/20 07:26:40;;;;;;;24.40;6.82;;;14.00;98.80;;;;;;5009294;28;20026;-58
2022/05/20 07:29:08;;;;;;;18.45;6.85;;;14.00;99.90;;;;;;5002516;28;20048;-58
2022/05/20 07:31:34;;;;;;;13.77;4.57;;;13.90;99.70;;;;;;5007909;28;20050;-58
2022/05/20 07:34:01;;;;;;;22.13;5.28;;;13.90;99.30;;;;;;5018016;28;20033;-59
2022/05/20 07:36:27;;;;;;;14.02;4.95;;;13.90;99.60;;;;;;5008060;28;20037;-59
2022/05/20 07:38:53;;;;;;;18.02;5.88;;;13.90;99.90;;;;;;5015855;28;20038;-59
2022/05/20 07:41:22;;;;;;;23.65;7.55;;;13.90;99.90;;;;;;5009881;28;20040;-59
2022/05/20 07:43:48;;;;;;;17.75;4.63;;;13.90;99.90;;;;;;5002246;28;20418;-59
2022/05/20 07:46:13;;;;;;;21.92;5.72;;;13.90;99.90;;;;;;5012475;28;20058;-59
2022/05/20 07:48:39;;;;;;;21.98;5.93;;;13.90;99.90;;;;;;5008828;28;20031;-58
2022/05/20 07:51:13;;;;;;;16.92;6.50;;;14.00;99.90;;;;;;5013748;28;20481;-61
2022/05/20 07:53:50;;;;;;;22.17;5.50;;;14.00;99.90;;;;;;5012640;28;20406;-57
2022/05/20 07:56:31;;;;;;;27.95;6.82;;;13.90;99.60;;;;;;5011290;28;20397;-58
2022/05/20 07:59:09;;;;;;;23.42;6.60;;;13.80;99.90;;;;;;5010175;28;20037;-58
2022/05/20 08:01:39;;;;;;;19.95;5.40;;;13.90;99.90;;;;;;5005299;28;20030;-58
2022/05/20 08:07:02;;;;;;;23.13;6.22;;;13.80;99.90;;;;;;5005770;28;20092;-57
2022/05/20 08:09:29;;;;;;;22.35;6.40;;;13.80;99.90;;;;;;5015548;28;20034;-58
2022/05/20 08:11:59;;;;;;;22.33;7.45;;;13.70;99.90;;;;;;5008634;28;20018;-59
2022/05/20 08:14:29;;;;;;;16.23;6.20;;;13.70;99.90;;;;;;5011899;28;20037;-63
2022/05/20 08:17:00;;;;;;;20.02;5.53;;;13.60;99.90;;;;;;5001671;28;20369;-59
2022/05/20 08:19:26;;;;;;;12.48;4.57;;;13.50;99.90;;;;;;5022329;28;20068;-59
2022/05/20 08:21:53;;;;;;;18.02;4.03;;;13.40;99.90;;;;;;5015570;28;20053;-60
2022/05/20 08:24:20;;;;;;;14.60;3.25;;;13.30;99.90;;;;;;5012291;28;20029;-59
2022/05/20 08:26:46;;;;;;;12.73;2.40;;;13.20;99.90;;;;;;5013753;28;20022;-60
2022/05/20 08:29:13;;;;;;;5.13;1.20;;;12.90;97.20;;;;;;5009241;28;20432;-59
2022/05/20 08:31:42;;;;;;;6.43;1.90;;;12.60;96.50;;;;;;5009861;28;20553;-59
2022/05/20 08:34:09;;;;;;;6.90;1.63;;;12.50;98.30;;;;;;5004141;28;20034;-60
2022/05/20 08:36:35;;;;;;;6.47;0.95;;;12.30;95.40;;;;;;5016256;28;20076;-59
2022/05/20 08:39:02;;;;;;;5.30;0.73;;;12.10;97.20;;;;;;5009080;28;20022;-62
2022/05/20 08:41:32;;;;;;;8.32;2.60;;;11.90;97.50;;;;;;5006084;28;20042;-59
2022/05/20 08:43:59;;;;;;;7.75;1.98;;;11.90;99.50;;;;;;5009857;28;20395;-59
2022/05/20 08:46:25;;;;;;;8.00;1.58;;;11.90;99.70;;;;;;5009950;28;20026;-60
2022/05/20 08:48:53;;;;;;;9.10;1.50;;;12.00;99.90;;;;;;5018146;28;20042;-60
2022/05/20 08:51:20;;;;;;;2.67;0.70;;;12.00;99.90;;;;;;5007736;28;20026;-60
2022/05/20 08:53:47;;;;;;;9.02;1.20;;;11.80;99.30;;;;;;5013429;28;20038;-60
2022/05/20 08:56:19;;;;;;;3.85;1.25;;;11.70;99.40;;;;;;5018060;28;20470;-60
2022/05/20 08:58:56;;;;;;;7.88;1.73;;;11.60;98.40;;;;;;5018933;28;20037;-60
2022/05/20 09:01:38;;;;;;;4.68;0.90;;;11.60;99.80;;;;;;5008266;28;20034;-59
2022/05/20 09:04:13;;;;;;;5.53;1.83;;;11.60;99.90;;;;;;5008970;28;20054;-60
2022/05/20 09:06:59;;;;;;;4.53;0.80;;;11.50;99.40;;;;;;5017385;28;20038;-61
2022/05/20 09:09:39;;;;;;;4.45;1.30;;;11.40;99.00;;;;;;5002890;28;20030;-60
2022/05/20 09:12:05;;;;;;;8.02;0.98;;;11.30;99.90;;;;;;5016172;28;20161;-62
2022/05/20 09:17:18;;;;;;;6.70;1.00;;;11.20;98.80;;;;;;5007516;28;20218;-60
2022/05/20 09:19:56;;;;;;;6.15;1.20;;;11.10;98.70;;;;;;5011292;28;20417;-59
2022/05/20 09:22:30;;;;;;;2.80;0.70;;;11.10;99.30;;;;;;5009155;28;20041;-60
2022/05/20 09:24:57;;;;;;;8.02;1.10;;;11.00;98.70;;;;;;5014443;28;20071;-61
2022/05/20 09:27:29;;;;;;;5.00;0.85;;;11.00;99.90;;;;;;5012880;28;20474;-61
2022/05/20 09:30:00;;;;;;;5.97;1.10;;;11.00;99.10;;;;;;5007344;28;20029;-60
2022/05/20 09:32:34;;;;;;;3.83;0.75;;;11.00;99.10;;;;;;5016867;28;20544;-61
2022/05/20 09:35:01;;;;;;;7.93;1.20;;;11.00;99.90;;;;;;5008151;28;20438;-60
2022/05/20 09:37:29;;;;;;;4.07;1.10;;;11.00;99.50;;;;;;5010454;28;20060;-61
2022/05/20 09:39:55;;;;;;;4.43;0.80;;;11.00;99.90;;;;;;5006580;28;20133;-61
2022/05/20 09:42:27;;;;;;;5.30;0.85;;;11.00;99.60;;;;;;5009749;28;20112;-61
2022/05/20 09:44:59;;;;;;;15.40;4.60;;;10.90;99.10;;;;;;5016373;28;20045;-62
2022/05/20 09:47:41;;;;;;;7.78;1.17;;;10.80;99.90;;;;;;5007842;28;20465;-67
2022/05/20 09:50:34;;;;;;;6.95;0.77;;;10.80;99.90;;;;;;5001048;28;20061;-70
2022/05/20 09:53:24;;;;;;;8.63;1.75;;;10.70;99.90;;;;;;5004533;28;20044;-70
2022/05/20 09:55:50;;;;;;;6.70;1.70;;;10.80;99.90;;;;;;5008759;28;20033;-68
2022/05/20 09:58:28;;;;;;;2.10;0.80;;;10.90;99.90;;;;;;5007785;28;20105;-68
2022/05/20 10:01:07;;;;;;;5.32;1.38;;;10.80;99.90;;;;;;5016112;28;20113;-66
2022/05/20 10:03:35;;;;;;;5.72;1.10;;;10.80;99.90;;;;;;5011145;28;20034;-67
2022/05/20 10:06:21;;;;;;;7.00;2.70;;;10.80;99.90;;;;;;5008102;28;20053;-68
2022/05/20 10:09:22;;;;;;;7.68;1.13;;;11.00;99.90;;;;;;5011269;28;20026;-65
2022/05/20 10:12:04;;;;;;;2.33;0.47;;;11.00;99.90;;;;;;5012258;28;20116;-65
2022/05/20 10:15:06;;;;;;;7.32;1.13;;;10.80;99.40;;;;;;5008849;28;20125;-63
2022/05/20 10:17:47;;;;;;;3.67;0.68;;;10.90;99.90;;;;;;4987048;28;20041;-61
2022/05/20 10:20:35;;;;;;;10.27;1.13;;;10.90;99.90;;;;;;5006678;28;20105;-60
2022/05/20 10:23:20;;;;;;;5.18;1.35;;;11.00;99.90;;;;;;5009124;28;20029;-60
2022/05/20 10:26:16;;;;;;;9.52;1.55;;;11.10;99.90;;;;;;5008112;28;20080;-62
2022/05/20 10:34:56;;;;;;;7.22;1.33;;;11.30;99.90;;;;;;5007644;28;20037;-61
2022/05/20 10:37:52;;;;;;;2.97;1.20;;;11.40;99.90;;;;;;5002983;28;20025;-61
2022/05/20 10:40:33;;;;;;;3.53;1.00;;;11.30;99.50;;;;;;5003341;28;20026;-61
2022/05/20 10:43:15;;;;;;;4.25;1.20;;;11.50;99.90;;;;;;5013285;28;20452;-61
2022/05/20 10:49:02;;;;;;;2.63;0.80;;;11.60;99.90;;;;;;5015438;28;20539;-60
2022/05/20 10:52:05;;;;;;;9.50;1.40;;;11.80;99.90;;;;;;4994371;28;20033;-60
2022/05/20 10:54:49;;;;;;;4.43;0.90;;;12.10;99.90;;;;;;5010387;28;20108;-60
2022/05/20 10:57:23;;;;;;;1.48;0.40;;;12.40;98.40;;;;;;5006310;28;20038;-61
2022/05/20 10:59:55;;;;;;;4.20;0.98;;;12.40;97.00;;;;;;5008730;28;20113;-59
2022/05/20 11:02:41;;;;;;;6.70;1.20;;;12.30;98.40;;;;;;5006208;28;20486;-59
2022/05/20 11:05:26;;;;;;;6.00;1.20;;;12.40;98.60;;;;;;5006315;28;20524;-59
2022/05/20 11:08:16;;;;;;;2.75;0.82;;;12.50;99.00;;;;;;5002965;28;20033;-60
2022/05/20 11:11:08;;;;;;;5.35;1.02;;;12.40;97.30;;;;;;5014885;28;20081;-62
2022/05/20 11:13:47;;;;;;;2.58;0.65;;;12.40;99.20;;;;;;5012182;28;20030;-59
2022/05/20 11:16:34;;;;;;;6.60;2.03;;;12.30;96.40;;;;;;5010352;28;20056;-59
2022/05/20 11:19:11;;;;;;;1.88;0.95;;;12.30;99.30;;;;;;5017306;28;20095;-59
2022/05/20 11:21:55;;;;;;;4.80;1.08;;;12.20;98.20;;;;;;5007884;28;20181;-60
2022/05/20 11:24:26;;;;;;;5.60;2.33;;;12.20;99.40;;;;;;5019764;28;20037;-60
2022/05/20 11:27:05;;;;;;;5.57;1.42;;;12.20;99.20;;;;;;4999298;28;20054;-59
2022/05/20 11:30:03;;;;;;;5.30;1.38;;;12.10;99.70;;;;;;5009260;28;20034;-59
2022/05/20 11:32:58;;;;;;;5.45;1.20;;;12.10;99.30;;;;;;5000500;28;20102;-59
2022/05/20 11:35:47;;;;;;;3.45;1.00;;;12.10;99.00;;;;;;5012523;28;20037;-59
2022/05/20 11:38:24;;;;;;;5.97;1.15;;;12.10;99.60;;;;;;5003936;28;20021;-58
2022/05/20 11:41:11;;;;;;;7.28;1.45;;;12.10;99.20;;;;;;5011133;28;20037;-59
2022/05/20 11:43:56;;;;;;;5.03;1.63;;;12.20;99.60;;;;;;5006657;28;20037;-59
2022/05/20 11:46:30;;;;;;;6.55;1.80;;;12.40;99.90;;;;;;5017818;28;20040;-60
2022/05/20 11:49:02;;;;;;;2.95;1.38;;;12.50;99.50;;;;;;5009581;28;20049;-60
2022/05/20 11:51:40;;;;;;;4.95;1.55;;;12.60;98.70;;;;;;5014919;28;20029;-59
2022/05/20 11:54:12;;;;;;;9.13;1.70;;;12.80;99.30;;;;;;5005022;28;20038;-60
2022/05/20 11:56:58;;;;;;;4.35;1.17;;;12.90;98.60;;;;;;5009434;28;20401;-60
2022/05/20 11:59:48;;;;;;;3.97;1.70;;;12.80;98.00;;;;;;5007837;28;20037;-59
2022/05/20 12:02:17;;;;;;;5.18;1.30;;;12.90;98.90;;;;;;5005289;28;20035;-59
2022/05/20 12:04:44;;;;;;;8.23;1.85;;;13.00;97.50;;;;;;5007301;28;20041;-59
2022/05/20 12:07:20;;;;;;;4.40;1.67;;;13.10;98.30;;;;;;5004642;28;20041;-59
2022/05/20 12:09:54;;;;;;;4.07;1.42;;;13.30;97.90;;;;;;5010517;28;20045;-60
2022/05/20 12:12:30;;;;;;;4.25;2.03;;;13.50;98.30;;;;;;5004242;28;20092;-59
2022/05/20 12:15:11;;;;;;;4.72;1.65;;;13.60;97.30;;;;;;5005822;28;20026;-59
2022/05/20 12:17:46;;;;;;;6.47;1.42;;;13.60;96.60;;;;;;5006172;28;20034;-59
2022/05/20 12:25:53;;;;;;;7.72;1.83;;;14.10;96.40;;;;;;5012785;28;20060;-59
2022/05/20 12:28:21;;;;;;;6.07;1.60;;;14.20;96.20;;;;;;5004676;28;20121;-60
2022/05/20 12:31:12;;;;;;;6.85;2.67;;;14.20;96.10;;;;;;5010180;28;20050;-60
2022/05/20 12:33:59;;;;;;;6.82;1.75;;;14.40;96.50;;;;;;5017137;28;20083;-59
2022/05/20 12:36:27;;;;;;;3.63;1.70;;;14.40;96.10;;;;;;5014305;28;20111;-61
2022/05/20 12:39:16;;;;;;;5.78;1.83;;;14.50;95.80;;;;;;5013121;28;20079;-59
2022/05/20 12:41:48;;;;;;;5.10;1.90;;;14.70;95.10;;;;;;5002615;28;20022;-58
2022/05/20 12:44:17;;;;;;;5.15;1.83;;;15.00;94.60;;;;;;5021151;28;20065;-59
2022/05/20 12:47:15;;;;;;;5.15;1.40;;;15.30;93.80;;;;;;5015632;28;20057;-60
2022/05/20 12:49:58;;;;;;;3.20;1.40;;;15.70;92.60;;;;;;5012116;28;20041;-59
2022/05/20 12:52:33;;;;;;;4.57;1.55;;;16.00;92.80;;;;;;5010722;28;20493;-58
2022/05/20 12:55:12;;;;;;;3.63;1.30;;;16.30;92.00;;;;;;5000732;28;20033;-59
2022/05/20 12:57:49;;;;;;;6.10;1.30;;;16.60;90.50;;;;;;5012529;28;20022;-59
2022/05/20 13:00:16;;;;;;;4.07;1.58;;;17.00;90.00;;;;;;5002277;28;20466;-58
2022/05/20 13:02:54;;;;;;;9.82;1.70;;;17.10;87.40;;;;;;5001147;28;20070;-59
2022/05/20 13:05:25;;;;;;;5.70;1.35;;;17.20;87.10;;;;;;5011505;28;20117;-60
2022/05/20 13:07:53;;;;;;;1.08;0.65;;;17.00;84.30;;;;;;5012048;28;20026;-60
2022/05/20 13:10:31;;;;;;;2.95;0.60;;;16.80;82.50;;;;;;5005739;28;20383;-60
2022/05/20 13:13:04;;;;;;;2.75;0.60;;;17.50;82.00;;;;;;5010330;28;20018;-61
2022/05/20 13:15:31;;;;;;;1.02;0.45;;;19.20;78.10;;;;;;5009796;28;20037;-59
2022/05/20 13:17:57;;;;;;;1.42;0.70;;;20.30;65.40;;;;;;5014358;28;20030;-60
2022/05/20 13:20:26;;;;;;;1.40;0.43;;;20.30;65.80;;;;;;5013135;28;20393;-60
2022/05/20 13:22:51;;;;;;;4.10;0.60;;;19.40;64.90;;;;;;5017216;28;20036;-59
2022/05/20 13:25:19;;;;;;;0.93;0.45;;;19.70;67.10;;;;;;5005171;28;20042;-59
2022/05/20 13:27:47;;;;;;;4.07;0.98;;;20.70;63.80;;;;;;5018158;28;20051;-59
2022/05/20 13:30:25;;;;;;;3.55;1.08;;;21.70;59.20;;;;;;5015978;28;20053;-59
2022/05/20 13:32:51;;;;;;;5.30;0.70;;;22.20;58.20;;;;;;5016682;28;20057;-59
2022/05/20 13:35:17;;;;;;;2.92;0.50;;;22.70;55.60;;;;;;5016057;28;20437;-59
2022/05/20 13:37:50;;;;;;;1.55;0.68;;;21.70;55.60;;;;;;5018885;28;20041;-59
2022/05/20 13:40:37;;;;;;;4.85;0.98;;;20.00;60.40;;;;;;5004082;28;20031;-59
2022/05/20 13:43:03;;;;;;;3.20;1.02;;;19.60;65.10;;;;;;5021920;28;20036;-60